createdAt,value
2019-02-27T00:00:28.803Z,9.17
2019-02-27T00:03:36.548Z,9.27
2019-02-27T00:06:42.311Z,9.30
2019-02-27T00:09:48.087Z,9.33
2019-02-27T00:12:54.960Z,9.31
2019-02-27T00:16:00.839Z,9.19
2019-02-27T00:19:06.962Z,9.20
2019-02-27T00:22:14.945Z,9.27
2019-02-27T00:25:20.440Z,9.31
2019-02-27T00:28:26.397Z,9.21
2019-02-27T00:31:32.152Z,9.31
2019-02-27T00:34:37.928Z,9.31
2019-02-27T00:37:43.783Z,9.34
2019-02-27T00:40:49.541Z,9.36
2019-02-27T00:43:55.309Z,9.25
2019-02-27T00:47:01.091Z,9.26
2019-02-27T00:50:07.126Z,9.35
2019-02-27T00:53:12.908Z,9.34
2019-02-27T00:56:18.681Z,9.33
2019-02-27T00:59:24.447Z,9.33
2019-02-27T01:02:30.406Z,9.33
2019-02-27T01:05:36.229Z,9.06
2019-02-27T01:08:42.105Z,9.13
2019-02-27T01:11:51.512Z,8.90
2019-02-27T01:14:55.430Z,8.85
2019-02-27T01:18:01.320Z,8.81
2019-02-27T01:21:07.082Z,9.24
2019-02-27T01:24:14.984Z,9.33
2019-02-27T01:27:20.336Z,9.34
2019-02-27T01:30:26.108Z,9.34
2019-02-27T01:33:31.864Z,9.33
2019-02-27T01:36:37.623Z,9.25
2019-02-27T01:39:44.052Z,9.34
2019-02-27T01:42:50.494Z,9.12
2019-02-27T01:45:56.371Z,9.09
2019-02-27T01:49:02.163Z,8.97
2019-02-27T01:52:08.119Z,9.02
2019-02-27T01:55:13.993Z,8.85
2019-02-27T01:58:19.774Z,9.14
2019-02-27T02:01:29.829Z,9.01
2019-02-27T02:04:33.065Z,9.08
2019-02-27T02:07:40.290Z,9.19
2019-02-27T02:10:46.584Z,8.92
2019-02-27T02:14:03.442Z,8.95
2019-02-27T02:17:38.165Z,9.02
2019-02-27T02:21:06.449Z,8.95
2019-02-27T02:25:17.349Z,8.91
2019-02-27T02:28:52.941Z,8.75
2019-02-27T02:32:29.399Z,8.92
2019-02-27T02:36:24.801Z,8.74
2019-02-27T02:39:54.199Z,8.97
2019-02-27T02:44:03.676Z,8.76
2019-02-27T02:47:21.269Z,8.61
2019-02-27T02:50:54.312Z,8.49
2019-02-27T02:54:28.431Z,8.48
2019-02-27T02:58:12.344Z,8.20
2019-02-27T03:01:45.651Z,8.29
2019-02-27T03:05:33.022Z,8.39
2019-02-27T03:08:56.213Z,8.42
2019-02-27T03:12:44.646Z,8.34
2019-02-27T03:16:31.035Z,8.30
2019-02-27T03:19:46.313Z,8.19
2019-02-27T03:23:38.520Z,8.05
2019-02-27T03:27:29.400Z,8.31
2019-02-27T03:31:18.130Z,8.30
2019-02-27T03:34:51.461Z,8.25
2019-02-27T03:38:47.084Z,8.16
2019-02-27T03:42:48.516Z,8.24
2019-02-27T03:46:21.094Z,7.98
2019-02-27T03:50:15.018Z,8.13
2019-02-27T03:53:57.457Z,8.21
2019-02-27T03:57:20.950Z,7.94
2019-02-27T04:00:55.690Z,7.90
2019-02-27T04:04:57.086Z,8.30
2019-02-27T04:08:23.694Z,8.12
2019-02-27T04:11:30.192Z,8.09
2019-02-27T04:14:40.074Z,8.23
2019-02-27T04:17:42.056Z,8.31
2019-02-27T04:20:50.842Z,8.20
2019-02-27T04:23:55.751Z,8.30
2019-02-27T04:27:01.524Z,8.33
2019-02-27T04:30:07.890Z,8.30
2019-02-27T04:33:13.649Z,8.10
2019-02-27T04:36:19.410Z,8.16
2019-02-27T04:39:25.195Z,8.41
2019-02-27T04:42:31.165Z,8.31
2019-02-27T04:45:37.036Z,8.42
2019-02-27T04:48:42.793Z,8.54
2019-02-27T04:51:50.578Z,8.49
2019-02-27T04:54:56.025Z,8.45
2019-02-27T04:58:01.871Z,8.59
2019-02-27T05:01:07.701Z,8.51
2019-02-27T05:04:13.519Z,8.64
2019-02-27T05:07:20.397Z,8.63
2019-02-27T05:10:26.713Z,8.44
2019-02-27T05:13:34.462Z,8.40
2019-02-27T05:16:40.099Z,8.34
2019-02-27T05:19:45.878Z,8.29
2019-02-27T05:22:51.659Z,8.34
2019-02-27T05:25:57.421Z,8.47
2019-02-27T05:29:03.309Z,8.51
2019-02-27T05:32:10.071Z,8.05
2019-02-27T05:35:15.826Z,7.97
2019-02-27T05:38:21.589Z,7.79
2019-02-27T05:41:27.393Z,8.06
2019-02-27T05:44:33.227Z,7.79
2019-02-27T05:47:39.007Z,8.05
2019-02-27T05:50:44.759Z,7.62
2019-02-27T05:53:50.510Z,8.12
2019-02-27T05:56:56.386Z,8.07
2019-02-27T06:00:03.382Z,8.02
2019-02-27T06:03:09.611Z,8.21
2019-02-27T06:06:16.489Z,7.97
2019-02-27T06:09:22.302Z,7.54
2019-02-27T06:12:28.087Z,7.32
2019-02-27T06:15:33.864Z,7.65
2019-02-27T06:18:39.647Z,7.71
2019-02-27T06:21:45.428Z,7.96
2019-02-27T06:24:51.196Z,8.03
2019-02-27T06:27:56.972Z,8.19
2019-02-27T06:31:03.227Z,8.49
2019-02-27T06:34:09.111Z,8.44
2019-02-27T06:37:15.502Z,8.59
2019-02-27T06:40:21.894Z,8.70
2019-02-27T06:43:27.947Z,8.81
2019-02-27T06:46:33.717Z,8.43
2019-02-27T06:49:39.510Z,8.78
2019-02-27T06:52:45.376Z,8.60
2019-02-27T06:55:51.125Z,8.74
2019-02-27T06:58:56.899Z,8.45
2019-02-27T07:02:02.671Z,8.78
2019-02-27T07:05:13.246Z,8.80
2019-02-27T07:08:17.659Z,8.67
2019-02-27T07:11:23.472Z,8.78
2019-02-27T07:14:29.378Z,8.85
2019-02-27T07:17:35.143Z,9.09
2019-02-27T07:20:40.946Z,9.25
2019-02-27T07:23:46.837Z,9.04
2019-02-27T07:26:52.606Z,9.18
2019-02-27T07:29:58.362Z,9.27
2019-02-27T07:33:06.736Z,9.45
2019-02-27T07:36:11.587Z,9.35
2019-02-27T07:39:17.408Z,9.60
2019-02-27T07:42:23.196Z,9.64
2019-02-27T07:45:29.025Z,9.69
2019-02-27T07:48:34.872Z,9.65
2019-02-27T07:51:40.652Z,9.61
2019-02-27T07:54:46.449Z,9.51
2019-02-27T07:57:52.203Z,9.71
2019-02-27T08:00:58.050Z,10.06
2019-02-27T08:04:03.922Z,10.35
2019-02-27T08:07:10.056Z,10.31
2019-02-27T08:10:18.873Z,10.41
2019-02-27T08:13:27.064Z,10.65
2019-02-27T08:16:32.200Z,10.56
2019-02-27T08:19:37.986Z,10.70
2019-02-27T08:22:44.235Z,10.60
2019-02-27T08:25:50.060Z,10.59
2019-02-27T08:28:55.936Z,10.00
2019-02-27T08:32:01.821Z,9.82
2019-02-27T08:35:08.938Z,9.99
2019-02-27T08:38:14.762Z,10.05
2019-02-27T08:41:20.545Z,10.28
2019-02-27T08:44:26.303Z,10.18
2019-02-27T08:47:33.653Z,10.11
2019-02-27T08:50:39.626Z,10.41
2019-02-27T08:53:45.454Z,10.71
2019-02-27T08:56:51.204Z,10.88
2019-02-27T08:59:57.004Z,11.34
2019-02-27T09:03:03.753Z,11.43
2019-02-27T09:06:09.701Z,11.11
2019-02-27T09:09:17.998Z,11.66
2019-02-27T09:12:23.218Z,11.61
2019-02-27T09:15:28.982Z,11.57
2019-02-27T09:18:36.635Z,11.77
2019-02-27T09:21:42.256Z,11.80
2019-02-27T09:24:48.015Z,11.54
2019-02-27T09:27:54.003Z,11.23
2019-02-27T09:31:03.291Z,10.72
2019-02-27T09:34:07.400Z,10.62
2019-02-27T09:37:13.853Z,10.39
2019-02-27T09:40:20.352Z,10.41
2019-02-27T09:43:27.367Z,10.29
2019-02-27T09:46:33.663Z,10.03
2019-02-27T09:49:40.798Z,9.61
2019-02-27T09:52:46.927Z,9.44
2019-02-27T09:55:54.278Z,9.02
2019-02-27T09:59:00.461Z,9.04
2019-02-27T10:02:09.270Z,9.29
2019-02-27T10:05:15.212Z,9.48
2019-02-27T10:08:21.117Z,9.22
2019-02-27T10:11:26.898Z,8.94
2019-02-27T10:14:32.653Z,9.03
2019-02-27T10:17:41.021Z,9.14
2019-02-27T10:20:46.047Z,8.85
2019-02-27T10:23:51.805Z,8.68
2019-02-27T10:26:57.586Z,8.46
2019-02-27T10:30:11.366Z,8.76
2019-02-27T10:33:11.931Z,8.90
2019-02-27T10:36:17.816Z,8.51
2019-02-27T10:39:23.583Z,8.22
2019-02-27T10:42:29.411Z,8.65
2019-02-27T10:45:35.347Z,8.60
2019-02-27T10:48:41.712Z,8.67
2019-02-27T10:51:47.599Z,8.54
2019-02-27T10:54:53.403Z,8.00
2019-02-27T10:57:59.206Z,7.88
2019-02-27T11:01:05.096Z,8.11
2019-02-27T11:04:12.106Z,8.23
2019-02-27T11:07:18.072Z,7.91
2019-02-27T11:10:24.531Z,8.26
2019-02-27T11:13:30.658Z,8.16
2019-02-27T11:16:36.452Z,8.17
2019-02-27T11:19:42.222Z,8.15
2019-02-27T11:22:48.176Z,8.51
2019-02-27T11:25:56.945Z,8.23
2019-02-27T11:29:01.644Z,8.20
2019-02-27T11:32:07.617Z,8.20
2019-02-27T11:35:14.217Z,7.99
2019-02-27T11:38:24.487Z,7.93
2019-02-27T11:41:27.537Z,7.81
2019-02-27T11:44:33.517Z,7.75
2019-02-27T11:47:44.705Z,7.73
2019-02-27T11:50:46.826Z,8.10
2019-02-27T11:53:52.591Z,8.11
2019-02-27T11:56:58.519Z,7.91
2019-02-27T12:00:04.794Z,7.93
2019-02-27T12:03:12.245Z,7.84
2019-02-27T12:06:18.000Z,7.91
2019-02-27T12:09:23.960Z,8.30
2019-02-27T12:12:29.845Z,7.91
2019-02-27T12:15:35.787Z,7.72
2019-02-27T12:18:44.774Z,7.85
2019-02-27T12:21:50.572Z,7.77
2019-02-27T12:24:58.235Z,7.69
2019-02-27T12:28:05.187Z,7.84
2019-02-27T12:31:14.241Z,7.75
2019-02-27T12:34:18.996Z,7.94
2019-02-27T12:37:28.329Z,7.95
2019-02-27T12:40:32.322Z,7.89
2019-02-27T12:43:38.085Z,7.90
2019-02-27T12:46:43.839Z,8.07
2019-02-27T12:49:51.526Z,7.96
2019-02-27T12:52:57.377Z,8.21
2019-02-27T12:56:03.154Z,8.38
2019-02-27T12:59:08.938Z,8.60
2019-02-27T13:02:14.730Z,8.98
2019-02-27T13:05:20.693Z,8.86
2019-02-27T13:08:26.443Z,8.76
2019-02-27T13:11:32.251Z,9.06
2019-02-27T13:14:38.135Z,9.16
2019-02-27T13:17:44.104Z,8.97
2019-02-27T13:20:49.971Z,8.88
2019-02-27T13:23:55.891Z,9.00
2019-02-27T13:27:01.633Z,8.86
2019-02-27T13:30:10.076Z,8.84
2019-02-27T13:33:15.914Z,9.04
2019-02-27T13:36:21.872Z,9.13
2019-02-27T13:39:27.647Z,8.90
2019-02-27T13:42:33.394Z,8.41
2019-02-27T13:45:39.187Z,8.89
2019-02-27T13:48:44.962Z,8.78
2019-02-27T13:51:50.721Z,9.01
2019-02-27T13:54:56.521Z,9.54
2019-02-27T13:58:03.724Z,9.20
2019-02-27T14:01:12.048Z,9.43
2019-02-27T14:04:21.858Z,9.23
2019-02-27T14:07:24.986Z,9.25
2019-02-27T14:10:31.128Z,9.10
2019-02-27T14:13:36.916Z,9.16
2019-02-27T14:16:42.814Z,9.63
2019-02-27T14:19:48.570Z,9.41
2019-02-27T14:22:54.430Z,9.61
2019-02-27T14:26:00.207Z,9.44
2019-02-27T14:29:07.081Z,9.40
2019-02-27T14:32:14.477Z,9.51
2019-02-27T14:35:20.526Z,9.73
2019-02-27T14:38:26.398Z,9.67
2019-02-27T14:41:32.258Z,9.16
2019-02-27T14:44:38.054Z,9.48
2019-02-27T14:47:43.837Z,9.65
2019-02-27T14:50:49.643Z,10.03
2019-02-27T14:53:55.923Z,10.12
2019-02-27T14:57:01.791Z,9.64
2019-02-27T15:00:11.145Z,9.84
2019-02-27T15:03:16.990Z,9.93
2019-02-27T15:06:22.763Z,10.07
2019-02-27T15:09:28.541Z,10.00
2019-02-27T15:12:34.312Z,9.93
2019-02-27T15:15:43.156Z,10.01
2019-02-27T15:18:47.674Z,10.10
2019-02-27T15:21:53.494Z,9.98
2019-02-27T15:24:59.782Z,9.89
2019-02-27T15:28:05.764Z,9.80
2019-02-27T15:31:11.688Z,9.89
2019-02-27T15:34:17.556Z,9.92
2019-02-27T15:37:23.530Z,9.77
2019-02-27T15:40:30.295Z,9.57
2019-02-27T15:43:36.172Z,9.71
2019-02-27T15:46:41.912Z,9.77
2019-02-27T15:49:48.691Z,9.87
2019-02-27T15:52:55.269Z,9.73
2019-02-27T15:56:01.076Z,9.56
2019-02-27T15:59:08.336Z,9.76
2019-02-27T16:02:14.343Z,9.76
2019-02-27T16:05:20.345Z,9.64
2019-02-27T16:08:26.175Z,9.67
2019-02-27T16:11:31.971Z,9.53
2019-02-27T16:14:40.217Z,9.48
2019-02-27T16:17:45.209Z,9.42
2019-02-27T16:20:50.990Z,9.27
2019-02-27T16:23:56.782Z,9.50
2019-02-27T16:27:03.751Z,9.51
2019-02-27T16:30:12.867Z,9.25
2019-02-27T16:33:23.028Z,9.48
2019-02-27T16:36:35.717Z,9.19
2019-02-27T16:39:34.161Z,9.49
2019-02-27T16:42:40.190Z,9.37
2019-02-27T16:45:46.111Z,9.09
2019-02-27T16:48:51.902Z,9.25
2019-02-27T16:51:57.929Z,9.18
2019-02-27T16:55:03.765Z,9.17
2019-02-27T16:58:09.556Z,9.19
2019-02-27T17:01:15.439Z,9.17
2019-02-27T17:04:21.228Z,9.23
2019-02-27T17:07:26.992Z,9.02
2019-02-27T17:10:32.911Z,9.04
2019-02-27T17:13:38.676Z,8.85
2019-02-27T17:16:45.482Z,9.01
2019-02-27T17:19:53.035Z,9.12
2019-02-27T17:22:59.203Z,8.90
2019-02-27T17:26:05.056Z,9.06
2019-02-27T17:29:10.838Z,8.81
2019-02-27T17:32:16.632Z,8.55
2019-02-27T17:35:23.604Z,8.49
2019-02-27T17:38:30.147Z,8.41
2019-02-27T17:41:35.914Z,8.19
2019-02-27T17:44:41.906Z,8.31
2019-02-27T17:47:47.882Z,8.38
2019-02-27T17:50:54.673Z,8.09
2019-02-27T17:54:00.442Z,8.28
2019-02-27T17:57:06.382Z,8.25
2019-02-27T18:00:18.429Z,8.10
2019-02-27T18:03:24.999Z,8.04
2019-02-27T18:06:31.184Z,7.99
2019-02-27T18:09:40.333Z,7.56
2019-02-27T18:12:45.819Z,7.39
2019-02-27T18:15:53.274Z,7.59
2019-02-27T18:18:59.392Z,7.62
2019-02-27T18:22:05.396Z,7.67
2019-02-27T18:25:11.797Z,7.44
2019-02-27T18:28:17.615Z,7.45
2019-02-27T18:31:26.584Z,7.68
2019-02-27T18:34:31.134Z,7.91
2019-02-27T18:37:37.318Z,7.75
2019-02-27T18:40:43.671Z,7.89
2019-02-27T18:43:49.567Z,7.93
2019-02-27T18:46:56.206Z,7.73
2019-02-27T18:50:02.956Z,7.97
2019-02-27T18:53:12.928Z,7.84
2019-02-27T18:56:16.397Z,7.64
2019-02-27T18:59:29.352Z,7.67
2019-02-27T19:02:32.885Z,7.81
2019-02-27T19:05:41.750Z,7.65
2019-02-27T19:08:46.361Z,7.75
2019-02-27T19:11:52.271Z,7.65
2019-02-27T19:14:58.185Z,7.76
2019-02-27T19:18:06.541Z,7.82
2019-02-27T19:21:11.968Z,8.03
2019-02-27T19:24:17.943Z,7.70
2019-02-27T19:27:23.828Z,7.85
2019-02-27T19:30:29.945Z,7.79
2019-02-27T19:33:36.526Z,7.93
2019-02-27T19:36:42.962Z,8.06
2019-02-27T19:39:48.953Z,7.74
2019-02-27T19:42:57.019Z,7.99
2019-02-27T19:46:02.927Z,7.88
2019-02-27T19:49:08.823Z,7.81
2019-02-27T19:52:14.791Z,7.89
2019-02-27T19:55:26.521Z,7.99
2019-02-27T19:58:29.489Z,7.79
2019-02-27T20:01:35.274Z,7.69
2019-02-27T20:04:43.689Z,7.79
2019-02-27T20:07:50.487Z,7.87
2019-02-27T20:10:56.530Z,7.70
2019-02-27T20:14:03.207Z,7.67
2019-02-27T20:17:09.193Z,7.55
2019-02-27T20:20:15.823Z,7.40
2019-02-27T20:23:21.603Z,7.51
2019-02-27T20:26:27.376Z,7.46
2019-02-27T20:29:33.265Z,7.38
2019-02-27T20:32:39.048Z,7.31
2019-02-27T20:35:44.801Z,7.34
2019-02-27T20:38:51.725Z,7.51
2019-02-27T20:41:57.640Z,7.66
2019-02-27T20:45:03.636Z,7.55
2019-02-27T20:48:09.996Z,7.59
2019-02-27T20:51:15.764Z,7.65
2019-02-27T20:54:21.530Z,7.51
2019-02-27T20:57:27.321Z,7.61
2019-02-27T21:00:36.097Z,7.78
2019-02-27T21:03:40.761Z,7.70
2019-02-27T21:06:47.657Z,7.79
2019-02-27T21:09:53.973Z,8.00
2019-02-27T21:12:59.867Z,7.90
2019-02-27T21:16:09.465Z,8.00
2019-02-27T21:19:13.338Z,7.88
2019-02-27T21:22:19.217Z,7.82
2019-02-27T21:25:24.990Z,7.85
2019-02-27T21:28:30.770Z,8.01
2019-02-27T21:31:36.556Z,7.93
2019-02-27T21:34:42.335Z,8.14
2019-02-27T21:37:48.176Z,8.35
2019-02-27T21:40:54.932Z,8.24
2019-02-27T21:44:00.721Z,8.09
2019-02-27T21:47:07.684Z,8.08
2019-02-27T21:50:15.340Z,8.12
2019-02-27T21:53:21.110Z,8.19
2019-02-27T21:56:26.879Z,8.04
2019-02-27T21:59:32.633Z,8.26
2019-02-27T22:02:38.391Z,8.05
2019-02-27T22:05:45.169Z,8.24
2019-02-27T22:08:51.062Z,8.14
2019-02-27T22:11:58.132Z,8.23
2019-02-27T22:15:04.640Z,8.23
2019-02-27T22:18:12.113Z,8.04
2019-02-27T22:21:17.954Z,8.26
2019-02-27T22:24:23.698Z,8.13
2019-02-27T22:27:29.487Z,8.46
2019-02-27T22:30:35.375Z,8.37
2019-02-27T22:33:41.202Z,8.08
2019-02-27T22:36:47.144Z,7.86
2019-02-27T22:39:53.199Z,8.07
2019-02-27T22:42:59.176Z,8.02
2019-02-27T22:46:05.111Z,8.15
2019-02-27T22:49:11.158Z,8.30
2019-02-27T22:52:19.302Z,8.32
2019-02-27T22:55:24.714Z,8.00
2019-02-27T22:58:30.601Z,8.13
2019-02-27T23:01:52.108Z,8.22
2019-02-27T23:04:58.131Z,8.05
2019-02-27T23:08:05.046Z,8.02
2019-02-27T23:11:10.960Z,8.28
2019-02-27T23:14:18.906Z,8.23
2019-02-27T23:17:24.588Z,8.26
2019-02-27T23:20:30.520Z,8.08
2019-02-27T23:23:37.416Z,7.96
2019-02-27T23:26:43.448Z,7.82
2019-02-27T23:29:49.471Z,7.80
2019-02-27T23:32:55.400Z,7.71
2019-02-27T23:36:01.244Z,8.03
2019-02-27T23:39:09.515Z,8.01
2019-02-27T23:42:15.566Z,7.87
2019-02-27T23:45:21.594Z,7.95
2019-02-27T23:48:27.498Z,8.05
2019-02-27T23:51:33.408Z,7.98
2019-02-27T23:54:39.375Z,7.52
2019-02-27T23:57:47.144Z,7.81
